This is the latest recevied weather packets stored in our database for station/object OE3XAM-13. If no packets are shown the sender has not sent any weather packets the latest 10 day(s).
| Time | Temp. | Humidity | Pressure | Rain* | Wind** | Luminosity | Snow |
|---|---|---|---|---|---|---|---|
| 1777529488 | 4.44° C | 49% | 995 hPa | 0 mm | - | - | - |
| 1777527688 | 2.78° C | 52% | 994 hPa | 0 mm | - | - | - |
| 1777525888 | 1.11° C | 61% | 994 hPa | 0 mm | - | - | - |
| 1777524088 | 0° C | 66% | 994 hPa | 0 mm | - | - | - |
| 1777522288 | -0.56° C | 66% | 994 hPa | 0 mm | - | - | - |
| 1777520488 | -0.56° C | 66% | 993 hPa | 0 mm | - | - | - |
| 1777518688 | 0° C | 64% | 993 hPa | 0 mm | - | - | - |
| 1777516888 | 0° C | 62% | 994 hPa | 0 mm | - | - | - |
| 1777515088 | 0.56° C | 60% | 993 hPa | 0 mm | - | - | - |
| 1777513288 | 1.67° C | 57% | 993 hPa | 0 mm | - | - | - |
| 1777511488 | 2.22° C | 52% | 993 hPa | 0 mm | - | - | - |
| 1777509688 | 2.78° C | 49% | 994 hPa | 0 mm | - | - | - |
| 1777507888 | 3.33° C | 45% | 994 hPa | 0 mm | - | - | - |
| 1777506088 | 3.89° C | 42% | 993 hPa | 0 mm | - | - | - |
| 1777504288 | 4.44° C | 41% | 993 hPa | 0 mm | - | - | - |
| 1777502488 | 5° C | 39% | 993 hPa | 0 mm | - | - | - |
| 1777500688 | 6.11° C | 36% | 993 hPa | 0 mm | - | - | - |
| 1777498888 | 7.22° C | 32% | 992 hPa | 0 mm | - | - | - |
| 1777497088 | 7.78° C | 30% | 992 hPa | 0 mm | - | - | - |
| 1777495288 | 8.33° C | 28% | 991 hPa | 0 mm | - | - | - |
| 1777493488 | 9.44° C | 28% | 990 hPa | 0 mm | - | - | - |
| 1777491688 | 10° C | 33% | 990 hPa | 0 mm | - | - | - |
| 1777489888 | 11.11° C | 33% | 989 hPa | 0 mm | - | - | - |
| 1777488088 | 11.67° C | 33% | 988 hPa | 0 mm | - | - | - |
| 1777486288 | 13.33° C | 31% | 987 hPa | 0 mm | - | - | - |
* Rain latest hour (hover to see other rain measurements)
** Current wind speed in m/s (hover to see current wind gust speed)